• Join FlightAware (Why Join?)
  • Login
  • US Flag 
11:33AM EDT


 

Airport Tracker/Info


-or-


 

Live Flight TrackerFlight Track Log ✈ EJA669 ✈ 14-May-2013 ✈ KEWR - KSHD

Flight Track Log - Related Links

Times and Time Zones

All times are in EDT time to prevent confusion due to time zone crossing. See the EJA669 flight status page for this flight to view local times or setup timezone preferences in your user account.

Time Position Orientation Groundspeed Altitude Reporting Facility
EDT Latitude Longitude Course Direction KTS MPH feet Rate Location/Type
03:26PM 40.6333 -74.1833 246° West 225 259 2,400  Level New York TRACON
03:27PM 40.6000 -74.2333 229° Southwest 192 221 3,600 1,560 Climbing New York TRACON
03:28PM 40.6000 -74.3167 270° West 243 280 5,600 2,640 Climbing New York TRACON
03:29PM 40.6333 -74.3833 303° West 261 300 8,900 3,180 Climbing New York TRACON
03:30PM 40.6167 -74.4833 258° West 285 328 12,000 2,940 Climbing New York TRACON
03:31PM 40.5117 -74.6815 246° West  Level FlightAware Approximate
03:31PM 40.5667 -74.5667 232° Southwest 329 379 14,800  Level New York TRACON
03:32PM 40.5050 -74.7478 246° West 347 399 17,200 1,500 Climbing New York Center
03:33PM 40.4569 -74.8733 243° Southwest 353 406 19,000 900 Climbing New York Center
03:34PM 40.4006 -74.9981 239° Southwest 358 412 19,000  Level New York Center
03:35PM 40.3300 -75.1000 228° Southwest 379 436 19,000 480 Level New York Center
03:36PM 40.2661 -75.1911 227° Southwest 384 442 20,000 1,320 Climbing New York Center
03:37PM 40.1936 -75.2953 228° Southwest 389 448 21,700 1,680 Climbing New York Center
03:38PM 40.1164 -75.4014 226° Southwest 399 459 23,500 1,860 Climbing New York Center
03:39PM 40.0414 -75.5050 227° Southwest 399 459 25,400 1,260 Climbing New York Center
03:40PM 39.9597 -75.6158 226° Southwest 404 465 26,000 240 Climbing New York Center
03:41PM 39.8819 -75.7350 230° Southwest 423 487 26,000  Level New York Center
03:42PM 39.8081 -75.8514 230° Southwest 428 493 26,000  Level New York Center
03:45PM 39.6247 -76.1411 231° Southwest 433 498 26,000  Level Washington Center
03:46PM 39.5492 -76.2589 230° Southwest 433 498 26,000  Level Washington Center
03:47PM 39.4694 -76.3792 229° Southwest 439 505 26,000 -420 Level Washington Center
03:48PM 39.3956 -76.4939 230° Southwest 429 494 25,200 -1,020 Descending Washington Center
03:49PM 39.3175 -76.6083 229° Southwest 429 494 24,100 -600 Descending Washington Center
03:50PM 39.2458 -76.7253 232° Southwest 429 494 24,000 -60 Descending Washington Center
03:51PM 39.1694 -76.8444 230° Southwest 429 494 24,000  Level Washington Center
03:52PM 39.0953 -76.9608 231° Southwest 429 494 24,000  Level Washington Center
03:53PM 39.0106 -77.0769 227° Southwest 429 494 24,000  Level Washington Center
03:54PM 38.9175 -77.1792 221° Southwest 434 499 24,000  Level Washington Center
03:55PM 38.8222 -77.2808 220° Southwest 447 514 24,000  Level Washington Center
03:56PM 38.7250 -77.3878 221° Southwest 452 520 24,000  Level Washington Center
03:57PM 38.6294 -77.4919 220° Southwest 457 526 24,000  Level Washington Center
03:58PM 38.5361 -77.5956 221° Southwest 463 533 24,000 -120 Level Washington Center
03:59PM 38.4575 -77.6783 220° Southwest 463 533 23,800 -1,560 Descending Washington Center
04:00PM 38.3489 -77.7997 221° Southwest 456 525 20,900 -2,700 Descending Washington Center
04:01PM 38.2681 -77.8953 223° Southwest 428 493 18,400 -2,400 Descending Washington Center
04:02PM 38.2014 -77.9908 228° Southwest 393 452 16,100 -2,400 Descending Washington Center
04:03PM 38.1494 -78.0844 235° Southwest 366 421 13,700 -2,340 Descending Washington Center
04:04PM 38.1161 -78.1808 246° West 308 354 11,500 -1,860 Descending Washington Center
04:05PM 38.1331 -78.2711 283° West 271 312 10,000 -780 Descending Washington Center
04:07PM 38.1500 -78.4667 276° West 265 305 9,200 -900 Descending Potomac TRACON
04:08PM 38.1333 -78.5500 256° West 240 276 7,400 -1,380 Descending Potomac TRACON
04:10PM 38.2333 -78.6667 318° Northwest 267 307 5,100 -1,080 Descending Potomac TRACON
04:11PM 38.2833 -78.7167 322° Northwest 242 278 4,300 -660 Descending Potomac TRACON
04:12PM 38.3500 -78.7667 330° Northwest 227 261 3,800 -300 Descending Potomac TRACON
04:13PM 38.3667 -78.7833 322° Northwest 185 213 3,800  Level Potomac TRACON
04:15PM 38.3667 -78.7833 218° Southwest 185 213 3,800  Level Potomac TRACON
04:17PM 38.2500 -78.8833 270° West  Level FlightAware Approximate
04:24PM 38.2638 -78.8964 270° West  Level Estimated
04:25PM 38.2638 -78.8964 270° West  Level Estimated
04:26PM 38.2638 -78.8964 270° West  Level Estimated
04:27PM 38.2638 -78.8964 270° West  Level Estimated
04:28PM 38.2638 -78.8964 270° West  Level Estimated
04:29PM 38.2638 -78.8964 270° West  Level Estimated
04:30PM 38.2638 -78.8964 270° West  Level Estimated
04:31PM 38.2638 -78.8964 270° West  Level Estimated